createdAt,value
2022-11-01T00:01:34.848Z,55.40
2022-11-01T00:04:02.451Z,55.25
2022-11-01T00:06:29.836Z,57.83
2022-11-01T00:08:57.273Z,56.08
2022-11-01T00:11:24.724Z,54.80
2022-11-01T00:13:53.459Z,54.83
2022-11-01T00:16:21.494Z,55.03
2022-11-01T00:18:49.444Z,55.08
2022-11-01T00:21:17.559Z,58.17
2022-11-01T00:23:45.544Z,56.13
2022-11-01T00:26:16.403Z,52.53
2022-11-01T00:28:43.922Z,55.80
2022-11-01T00:31:13.173Z,58.08
2022-11-01T00:33:40.640Z,57.42
2022-11-01T00:36:08.799Z,57.90
2022-11-01T00:38:36.792Z,56.30
2022-11-01T00:41:04.701Z,57.92
2022-11-01T00:43:32.253Z,56.92
2022-11-01T00:45:59.954Z,54.40
2022-11-01T00:48:28.904Z,56.17
2022-11-01T00:50:56.477Z,55.92
2022-11-01T00:53:23.882Z,57.33
2022-11-01T00:55:51.527Z,54.88
2022-11-01T00:58:18.961Z,54.10
2022-11-01T01:00:46.418Z,56.05
2022-11-01T01:03:13.822Z,56.05
2022-11-01T01:05:42.651Z,53.25
2022-11-01T01:08:10.103Z,54.95
2022-11-01T01:10:37.605Z,53.65
2022-11-01T01:13:05.289Z,56.70
2022-11-01T01:15:32.983Z,53.17
2022-11-01T01:18:00.973Z,52.78
2022-11-01T01:20:28.551Z,48.47
2022-11-01T01:22:57.755Z,52.60
2022-11-01T01:25:25.427Z,49.42
2022-11-01T01:27:52.867Z,48.60
2022-11-01T01:30:20.304Z,49.75
2022-11-01T01:32:47.736Z,50.15
2022-11-01T01:35:15.144Z,50.78
2022-11-01T01:37:42.537Z,49.97
2022-11-01T01:40:11.828Z,48.35
2022-11-01T01:42:40.929Z,45.33
2022-11-01T01:45:30.981Z,47.83
2022-11-01T01:48:06.486Z,50.97
2022-11-01T01:50:36.360Z,46.55
2022-11-01T01:53:06.467Z,46.72
2022-11-01T01:55:38.089Z,45.00
2022-11-01T01:58:07.868Z,43.95
2022-11-01T02:00:35.291Z,44.35
2022-11-01T02:03:03.306Z,45.92
2022-11-01T02:05:37.661Z,44.38
2022-11-01T02:08:06.666Z,44.60
2022-11-01T02:10:35.690Z,44.17
2022-11-01T02:13:03.123Z,48.67
2022-11-01T02:15:37.023Z,45.88
2022-11-01T02:20:43.733Z,49.22
2022-11-01T02:23:50.929Z,44.85
2022-11-01T02:26:53.946Z,46.85
2022-11-01T02:29:52.860Z,46.45
2022-11-01T02:32:23.975Z,42.88
2022-11-01T02:34:57.039Z,43.38
2022-11-01T02:37:27.709Z,41.30
2022-11-01T02:39:59.153Z,42.38
2022-11-01T02:42:29.749Z,43.90
2022-11-01T02:45:01.845Z,48.45
2022-11-01T02:47:31.794Z,46.58
2022-11-01T02:50:01.748Z,42.33
2022-11-01T02:52:31.861Z,42.50
2022-11-01T02:55:00.377Z,43.50
2022-11-01T02:57:30.909Z,43.03
2022-11-01T03:00:04.145Z,41.17
2022-11-01T03:02:40.587Z,38.78
2022-11-01T03:05:12.515Z,39.30
2022-11-01T03:07:40.845Z,43.10
2022-11-01T03:10:08.987Z,41.67
2022-11-01T03:12:43.720Z,43.88
2022-11-01T03:15:20.932Z,53.08
2022-11-01T03:17:52.285Z,44.78
2022-11-01T03:20:22.923Z,45.17
2022-11-01T03:22:53.714Z,45.10
2022-11-01T03:25:40.082Z,43.80
2022-11-01T03:28:11.190Z,50.10
2022-11-01T03:30:42.857Z,52.40
2022-11-01T03:33:12.728Z,48.80
2022-11-01T03:35:41.470Z,50.22
2022-11-01T03:38:19.291Z,49.17
2022-11-01T03:40:50.771Z,44.78
2022-11-01T03:43:20.262Z,45.30
2022-11-01T03:45:47.782Z,42.72
2022-11-01T03:48:16.494Z,45.47
2022-11-01T03:50:48.355Z,48.90
2022-11-01T03:53:16.102Z,45.88
2022-11-01T03:55:43.527Z,47.50
2022-11-01T03:58:11.338Z,50.67
2022-11-01T04:00:40.179Z,51.17
2022-11-01T04:03:08.075Z,53.85
2022-11-01T04:05:37.671Z,56.63
2022-11-01T04:08:06.348Z,52.25
2022-11-01T04:10:34.182Z,53.90
2022-11-01T04:13:02.549Z,55.38
2022-11-01T04:15:47.766Z,52.55
2022-11-01T04:18:34.448Z,56.58
2022-11-01T04:21:05.767Z,61.33
2022-11-01T04:23:33.454Z,55.03
2022-11-01T04:26:00.881Z,59.58
2022-11-01T04:28:28.285Z,54.40
2022-11-01T04:30:55.724Z,53.45
2022-11-01T04:33:23.114Z,53.70
2022-11-01T04:35:50.591Z,53.78
2022-11-01T04:38:19.325Z,55.25
2022-11-01T04:40:46.759Z,58.30
2022-11-01T04:43:14.220Z,52.90
2022-11-01T04:45:41.706Z,57.20
2022-11-01T04:48:12.611Z,61.83
2022-11-01T04:50:40.841Z,59.60
2022-11-01T04:53:08.703Z,57.33
2022-11-01T04:55:37.459Z,56.42
2022-11-01T04:58:06.602Z,58.88
2022-11-01T05:00:34.442Z,59.90
2022-11-01T05:03:03.519Z,55.47
2022-11-01T05:05:31.657Z,56.92
2022-11-01T05:08:03.192Z,57.63
2022-11-01T05:10:30.953Z,58.25
2022-11-01T05:13:00.204Z,59.20
2022-11-01T05:15:27.816Z,59.05
2022-11-01T05:17:55.244Z,58.30
2022-11-01T05:20:22.658Z,62.03
2022-11-01T05:22:50.089Z,58.97
2022-11-01T05:25:17.971Z,60.60
2022-11-01T05:27:45.442Z,58.83
2022-11-01T05:30:14.654Z,60.00
2022-11-01T05:32:42.041Z,58.38
2022-11-01T05:35:10.114Z,63.47
2022-11-01T05:37:37.524Z,62.05
2022-11-01T05:40:05.783Z,64.20
2022-11-01T05:42:33.208Z,60.85
2022-11-01T05:45:00.675Z,63.13
2022-11-01T05:47:29.423Z,60.40
2022-11-01T05:49:56.816Z,61.28
2022-11-01T05:52:24.239Z,63.67
2022-11-01T05:54:51.623Z,64.68
2022-11-01T05:57:19.058Z,65.35
2022-11-01T05:59:46.474Z,69.35
2022-11-01T06:02:13.983Z,68.55
2022-11-01T06:04:42.784Z,67.88
2022-11-01T06:07:10.352Z,68.00
2022-11-01T06:09:37.749Z,68.82
2022-11-01T06:12:05.816Z,69.13
2022-11-01T06:14:36.284Z,68.97
2022-11-01T06:17:03.715Z,65.65
2022-11-01T06:19:31.116Z,69.38
2022-11-01T06:22:00.287Z,68.10
2022-11-01T06:24:27.674Z,64.75
2022-11-01T06:26:55.060Z,66.18
2022-11-01T06:29:22.502Z,63.50
2022-11-01T06:31:49.883Z,62.15
2022-11-01T06:34:17.273Z,63.65
2022-11-01T06:36:44.702Z,59.90
2022-11-01T06:39:13.449Z,59.92
2022-11-01T06:41:40.862Z,60.47
2022-11-01T06:44:08.265Z,57.60
2022-11-01T06:46:35.674Z,57.15
2022-11-01T06:49:03.254Z,55.28
2022-11-01T06:51:30.688Z,51.97
2022-11-01T06:53:58.093Z,54.80
2022-11-01T06:56:26.883Z,51.15
2022-11-01T06:58:54.306Z,50.97
2022-11-01T07:01:22.582Z,51.30
2022-11-01T07:03:51.548Z,50.63
2022-11-01T07:06:19.207Z,49.05
2022-11-01T07:08:46.766Z,48.50
2022-11-01T07:11:14.195Z,48.88
2022-11-01T07:13:43.119Z,48.47
2022-11-01T07:16:10.570Z,48.47
2022-11-01T07:18:37.986Z,46.20
2022-11-01T07:21:06.178Z,47.17
2022-11-01T07:23:33.666Z,46.70
2022-11-01T07:26:01.118Z,47.13
2022-11-01T07:28:28.632Z,47.30
2022-11-01T07:30:57.440Z,47.05
2022-11-01T07:33:24.848Z,46.70
2022-11-01T07:35:52.538Z,46.80
2022-11-01T07:38:20.449Z,46.33
2022-11-01T07:40:49.724Z,45.80
2022-11-01T07:43:17.900Z,45.20
2022-11-01T07:45:45.773Z,43.42
2022-11-01T07:48:16.118Z,44.38
2022-11-01T07:50:44.426Z,42.45
2022-11-01T07:53:13.464Z,42.95
2022-11-01T07:55:41.544Z,40.25
2022-11-01T07:58:09.876Z,39.78
2022-11-01T08:00:37.715Z,39.95
2022-11-01T08:03:06.611Z,39.50
2022-11-01T08:05:35.992Z,38.75
2022-11-01T08:08:03.867Z,46.80
2022-11-01T08:10:31.781Z,44.42
2022-11-01T08:13:03.569Z,40.08
2022-11-01T08:15:31.018Z,40.88
2022-11-01T08:17:58.877Z,39.80
2022-11-01T08:20:27.637Z,36.85
2022-11-01T08:22:56.712Z,35.83
2022-11-01T08:25:24.365Z,32.15
2022-11-01T08:27:52.124Z,29.58
2022-11-01T08:30:20.633Z,29.27
2022-11-01T08:32:48.031Z,27.67
2022-11-01T08:35:15.564Z,27.63
2022-11-01T08:37:49.857Z,27.02
2022-11-01T08:40:18.988Z,24.90
2022-11-01T08:42:46.486Z,25.75
2022-11-01T08:45:14.330Z,25.55
2022-11-01T08:47:42.116Z,23.67
2022-11-01T08:50:11.755Z,24.50
2022-11-01T08:52:39.416Z,24.88
2022-11-01T08:55:07.896Z,25.58
2022-11-01T08:57:36.696Z,23.48
2022-11-01T09:00:05.647Z,23.92
2022-11-01T09:02:33.099Z,23.95
2022-11-01T09:05:02.661Z,22.40
2022-11-01T09:07:30.445Z,22.63
2022-11-01T09:09:57.872Z,22.27
2022-11-01T09:12:25.430Z,21.63
2022-11-01T09:14:54.219Z,19.23
2022-11-01T09:17:21.624Z,18.30
2022-11-01T09:19:49.036Z,17.48
2022-11-01T09:22:16.431Z,17.00
2022-11-01T09:24:43.823Z,15.95
2022-11-01T09:27:11.216Z,16.75
2022-11-01T09:29:38.626Z,15.07
2022-11-01T09:32:07.576Z,15.90
2022-11-01T09:34:35.037Z,15.90
2022-11-01T09:37:02.832Z,16.70
2022-11-01T09:39:30.225Z,16.42
2022-11-01T09:42:03.037Z,17.27
2022-11-01T09:44:32.765Z,17.17
2022-11-01T09:47:02.917Z,17.92
2022-11-01T09:49:34.929Z,16.83
2022-11-01T09:52:02.457Z,16.83
2022-11-01T09:54:29.850Z,17.13
2022-11-01T09:57:04.689Z,17.00
2022-11-01T09:59:37.191Z,17.15
2022-11-01T10:02:20.623Z,15.80
2022-11-01T10:05:02.965Z,15.65
2022-11-01T10:07:35.205Z,15.88
2022-11-01T10:10:07.776Z,16.90
2022-11-01T10:12:46.453Z,15.88
2022-11-01T10:15:27.198Z,16.98
2022-11-01T10:17:55.895Z,16.20
2022-11-01T10:20:28.735Z,16.80
2022-11-01T10:22:58.802Z,15.05
2022-11-01T10:25:29.568Z,15.15
2022-11-01T10:28:04.308Z,15.20
2022-11-01T10:30:36.497Z,16.20
2022-11-01T10:33:25.765Z,15.00
2022-11-01T10:35:57.036Z,14.80
2022-11-01T10:38:59.174Z,15.23
2022-11-01T10:41:24.682Z,14.38
2022-11-01T10:43:54.395Z,14.68
2022-11-01T10:46:23.965Z,13.15
2022-11-01T10:48:53.509Z,13.35
2022-11-01T10:51:27.842Z,12.40
2022-11-01T10:53:59.945Z,13.85
2022-11-01T10:56:30.833Z,13.02
2022-11-01T10:59:01.874Z,12.23
2022-11-01T11:01:32.857Z,12.07
2022-11-01T11:04:02.277Z,11.43
2022-11-01T11:06:31.252Z,11.27
2022-11-01T11:08:59.351Z,10.25
2022-11-01T11:11:32.860Z,9.75
2022-11-01T11:14:01.242Z,8.80
2022-11-01T11:16:33.335Z,8.35
2022-11-01T11:19:02.496Z,8.02
2022-11-01T11:21:35.807Z,7.68
2022-11-01T11:24:04.705Z,7.28
2022-11-01T11:26:39.048Z,7.55
2022-11-01T11:29:06.985Z,7.60
2022-11-01T11:31:35.276Z,7.45
2022-11-01T11:34:16.174Z,7.55
2022-11-01T11:36:48.141Z,7.40
2022-11-01T11:39:25.336Z,6.97
2022-11-01T11:41:52.824Z,7.18
2022-11-01T11:44:42.589Z,7.78
2022-11-01T11:47:24.525Z,7.45
2022-11-01T11:49:53.932Z,7.18
2022-11-01T11:52:28.487Z,7.68
2022-11-01T11:54:56.044Z,7.35
2022-11-01T11:57:24.954Z,7.13
2022-11-01T11:59:54.376Z,6.97
2022-11-01T12:02:24.988Z,6.93
2022-11-01T12:04:56.257Z,7.70
2022-11-01T12:07:28.005Z,7.00
2022-11-01T12:09:56.409Z,7.28
2022-11-01T12:12:26.184Z,6.80
2022-11-01T12:14:54.027Z,8.13
2022-11-01T12:17:32.911Z,7.78
2022-11-01T12:20:02.502Z,9.27
2022-11-01T12:22:34.446Z,9.25
2022-11-01T12:25:05.213Z,8.60
2022-11-01T12:27:34.094Z,8.88
2022-11-01T12:30:08.362Z,9.80
2022-11-01T12:32:40.822Z,9.00
2022-11-01T12:35:17.709Z,9.32
2022-11-01T12:37:52.901Z,9.48
2022-11-01T12:40:23.122Z,10.00
2022-11-01T12:42:54.331Z,10.60
2022-11-01T12:45:26.074Z,9.68
2022-11-01T12:47:56.567Z,9.38
2022-11-01T12:50:25.433Z,9.75
2022-11-01T12:52:57.802Z,9.93
2022-11-01T12:55:30.403Z,10.95
2022-11-01T12:57:58.048Z,9.73
2022-11-01T13:00:29.330Z,10.05
2022-11-01T13:03:07.702Z,10.23
2022-11-01T13:05:43.001Z,9.98
2022-11-01T13:08:21.118Z,10.25
2022-11-01T13:10:49.773Z,9.70
2022-11-01T13:13:22.478Z,9.02
2022-11-01T13:15:56.936Z,10.23
2022-11-01T13:18:33.353Z,9.82
2022-11-01T13:21:05.731Z,9.95
2022-11-01T13:23:37.688Z,9.10
2022-11-01T13:26:10.276Z,10.55
2022-11-01T13:28:57.220Z,10.07
2022-11-01T13:31:31.303Z,9.73
2022-11-01T13:34:04.955Z,10.68
2022-11-01T13:36:37.739Z,9.90
2022-11-01T13:39:17.497Z,9.65
2022-11-01T13:41:50.204Z,8.52
2022-11-01T13:44:20.588Z,9.55
2022-11-01T13:47:28.066Z,10.85
2022-11-01T13:50:17.330Z,9.73
2022-11-01T13:52:49.306Z,8.90
2022-11-01T13:55:22.902Z,9.68
2022-11-01T13:57:50.498Z,9.07
2022-11-01T14:00:39.460Z,9.52
2022-11-01T14:03:25.026Z,9.32
2022-11-01T14:06:27.365Z,8.35
2022-11-01T14:09:20.935Z,8.63
2022-11-01T14:11:50.853Z,8.13
2022-11-01T14:14:49.681Z,8.65
2022-11-01T14:17:40.141Z,8.32
2022-11-01T14:20:59.442Z,8.90
2022-11-01T14:24:00.409Z,8.50
2022-11-01T14:26:39.735Z,8.88
2022-11-01T14:29:12.733Z,8.32
2022-11-01T14:31:40.837Z,8.77
2022-11-01T14:34:11.178Z,8.85
2022-11-01T14:36:41.748Z,9.02
2022-11-01T14:39:15.328Z,9.43
2022-11-01T14:41:44.633Z,9.00
2022-11-01T14:44:16.112Z,8.00
2022-11-01T14:46:46.845Z,9.23
2022-11-01T14:49:20.009Z,8.40
2022-11-01T14:51:50.327Z,9.07
2022-11-01T14:54:21.950Z,8.90
2022-11-01T14:56:50.587Z,8.10
2022-11-01T14:59:22.061Z,9.05
2022-11-01T15:01:51.780Z,9.20
2022-11-01T15:04:24.012Z,9.68
2022-11-01T15:06:52.010Z,11.80
2022-11-01T15:09:22.107Z,9.55
2022-11-01T15:11:50.472Z,9.43
2022-11-01T15:14:23.284Z,9.80
2022-11-01T15:16:51.816Z,8.80
2022-11-01T15:19:22.962Z,8.52
2022-11-01T15:21:50.364Z,8.60
2022-11-01T15:24:20.312Z,8.32
2022-11-01T15:26:47.864Z,8.85
2022-11-01T15:29:18.237Z,9.45
2022-11-01T15:31:51.007Z,9.80
2022-11-01T15:34:24.172Z,9.73
2022-11-01T15:36:52.018Z,10.88
2022-11-01T15:39:21.412Z,11.45
2022-11-01T15:41:49.477Z,12.23
2022-11-01T15:44:21.605Z,12.80
2022-11-01T15:46:51.365Z,14.38
2022-11-01T15:49:20.395Z,13.23
2022-11-01T15:51:50.398Z,12.30
2022-11-01T15:54:30.916Z,11.63
2022-11-01T15:57:00.481Z,10.23
2022-11-01T15:59:33.140Z,12.40
2022-11-01T16:02:04.888Z,12.95
2022-11-01T16:04:38.326Z,13.52
2022-11-01T16:07:06.975Z,12.02
2022-11-01T16:09:38.806Z,11.77
2022-11-01T16:12:08.133Z,12.30
2022-11-01T16:14:38.015Z,11.48
2022-11-01T16:17:09.746Z,12.15
2022-11-01T16:19:39.898Z,12.32
2022-11-01T16:22:26.031Z,11.23
2022-11-01T16:25:01.648Z,11.82
2022-11-01T16:27:29.387Z,11.98
2022-11-01T16:29:56.856Z,12.07
2022-11-01T16:32:28.131Z,11.25
2022-11-01T16:34:56.294Z,11.85
2022-11-01T16:37:24.916Z,12.20
2022-11-01T16:39:52.797Z,11.95
2022-11-01T16:42:21.090Z,13.00
2022-11-01T16:44:50.705Z,17.33
2022-11-01T16:47:19.161Z,17.45
2022-11-01T16:49:49.590Z,15.88
2022-11-01T16:52:17.323Z,15.88
2022-11-01T16:54:45.124Z,15.40
2022-11-01T16:57:19.649Z,16.45
2022-11-01T16:59:47.176Z,17.00
2022-11-01T17:02:17.310Z,16.52
2022-11-01T17:04:45.303Z,16.17
2022-11-01T17:07:15.593Z,16.27
2022-11-01T17:09:43.011Z,17.75
2022-11-01T17:12:11.447Z,17.98
2022-11-01T17:17:15.846Z,17.37
2022-11-01T17:19:45.882Z,16.40
2022-11-01T17:22:17.692Z,15.30
2022-11-01T17:24:45.703Z,14.75
2022-11-01T17:27:13.515Z,14.32
2022-11-01T17:29:41.004Z,14.23
2022-11-01T17:32:10.950Z,13.05
2022-11-01T17:34:39.138Z,13.77
2022-11-01T17:37:06.935Z,12.70
2022-11-01T17:39:35.713Z,13.88
2022-11-01T17:42:03.100Z,13.40
2022-11-01T17:44:30.504Z,13.55
2022-11-01T17:46:57.896Z,13.27
2022-11-01T17:49:25.734Z,12.90
2022-11-01T17:51:54.862Z,12.60
2022-11-01T17:54:22.604Z,13.32
2022-11-01T17:56:51.834Z,13.13
2022-11-01T17:59:19.406Z,14.55
2022-11-01T18:01:46.925Z,14.30
2022-11-01T18:04:14.444Z,14.10
2022-11-01T18:06:42.397Z,14.48
2022-11-01T18:09:19.061Z,15.27
2022-11-01T18:11:49.423Z,18.35
2022-11-01T18:14:20.952Z,15.75
2022-11-01T18:16:49.666Z,15.30
2022-11-01T18:19:30.609Z,15.70
2022-11-01T18:22:05.871Z,17.52
2022-11-01T18:24:36.446Z,18.38
2022-11-01T18:27:09.984Z,17.40
2022-11-01T18:29:40.331Z,16.20
2022-11-01T18:32:13.194Z,16.38
2022-11-01T18:34:45.482Z,15.13
2022-11-01T18:37:21.080Z,15.23
2022-11-01T18:39:55.492Z,14.77
2022-11-01T18:42:23.059Z,14.98
2022-11-01T18:44:51.887Z,15.65
2022-11-01T18:47:22.096Z,16.63
2022-11-01T18:49:49.810Z,16.50
2022-11-01T18:52:19.129Z,15.68
2022-11-01T18:54:52.339Z,15.13
2022-11-01T18:57:24.665Z,14.43
2022-11-01T18:59:54.124Z,14.95
2022-11-01T19:02:23.128Z,15.95
2022-11-01T19:04:52.225Z,15.95
2022-11-01T19:07:22.519Z,14.38
2022-11-01T19:09:53.305Z,15.68
2022-11-01T19:12:27.087Z,17.48
2022-11-01T19:15:00.685Z,16.58
2022-11-01T19:17:29.779Z,17.35
2022-11-01T19:19:59.634Z,15.95
2022-11-01T19:22:37.677Z,15.43
2022-11-01T19:25:17.507Z,17.42
2022-11-01T19:27:45.148Z,18.15
2022-11-01T19:30:21.971Z,17.13
2022-11-01T19:32:49.624Z,16.50
2022-11-01T19:35:21.881Z,16.52
2022-11-01T19:37:51.464Z,17.80
2022-11-01T19:40:28.019Z,15.65
2022-11-01T19:42:55.931Z,17.13
2022-11-01T19:45:32.620Z,17.15
2022-11-01T19:48:02.003Z,22.05
2022-11-01T19:50:39.281Z,18.13
2022-11-01T19:53:16.491Z,17.02
2022-11-01T19:55:48.341Z,16.55
2022-11-01T19:58:42.102Z,16.88
2022-11-01T20:01:42.875Z,17.63
2022-11-01T20:04:19.381Z,18.23
2022-11-01T20:06:51.477Z,17.67
2022-11-01T20:09:22.114Z,17.00
2022-11-01T20:11:49.555Z,16.02
2022-11-01T20:14:18.766Z,17.25
2022-11-01T20:16:47.602Z,17.65
2022-11-01T20:19:17.647Z,17.27
2022-11-01T20:21:45.795Z,17.35
2022-11-01T20:24:13.239Z,17.13
2022-11-01T20:26:40.746Z,16.33
2022-11-01T20:29:08.357Z,17.48
2022-11-01T20:31:37.036Z,15.93
2022-11-01T20:34:07.190Z,17.00
2022-11-01T20:36:34.918Z,17.23
2022-11-01T20:39:03.117Z,16.17
2022-11-01T20:41:30.858Z,17.80
2022-11-01T20:43:58.483Z,20.00
2022-11-01T20:46:25.909Z,22.75
2022-11-01T20:48:53.451Z,20.02
2022-11-01T20:51:22.286Z,19.65
2022-11-01T20:53:49.700Z,20.50
2022-11-01T20:56:17.655Z,19.85
2022-11-01T20:58:45.132Z,18.70
2022-11-01T21:01:15.881Z,17.33
2022-11-01T21:03:44.400Z,17.80
2022-11-01T21:06:13.740Z,16.63
2022-11-01T21:08:44.908Z,15.20
2022-11-01T21:11:16.132Z,14.43
2022-11-01T21:13:45.631Z,14.80
2022-11-01T21:16:24.707Z,16.33
2022-11-01T21:18:53.633Z,14.60
2022-11-01T21:21:41.320Z,13.82
2022-11-01T21:24:32.446Z,14.73
2022-11-01T21:27:19.786Z,15.70
2022-11-01T21:29:48.670Z,18.27
2022-11-01T21:32:34.543Z,17.77
2022-11-01T21:35:22.769Z,17.05
2022-11-01T21:37:53.593Z,17.17
2022-11-01T21:40:23.973Z,16.15
2022-11-01T21:42:51.368Z,16.00
2022-11-01T21:45:28.598Z,17.02
2022-11-01T21:48:01.038Z,16.45
2022-11-01T21:50:28.534Z,17.92
2022-11-01T21:52:55.948Z,17.13
2022-11-01T21:55:24.753Z,16.70
2022-11-01T21:57:52.152Z,16.30
2022-11-01T22:00:19.798Z,16.13
2022-11-01T22:02:47.275Z,16.60
2022-11-01T22:05:14.744Z,17.65
2022-11-01T22:07:42.138Z,15.50
2022-11-01T22:10:12.502Z,16.40
2022-11-01T22:12:41.225Z,15.90
2022-11-01T22:15:09.316Z,15.38
2022-11-01T22:17:36.715Z,16.38
2022-11-01T22:20:04.963Z,16.42
2022-11-01T22:22:32.362Z,13.95
2022-11-01T22:24:59.781Z,16.08
2022-11-01T22:27:27.208Z,13.57
2022-11-01T22:29:55.941Z,13.25
2022-11-01T22:32:23.482Z,14.55
2022-11-01T22:34:50.883Z,15.25
2022-11-01T22:37:18.506Z,12.43
2022-11-01T22:39:47.052Z,12.13
2022-11-01T22:42:17.975Z,13.30
2022-11-01T22:44:47.464Z,15.05
2022-11-01T22:47:22.793Z,14.65
2022-11-01T22:49:52.396Z,14.35
2022-11-01T22:52:26.727Z,14.73
2022-11-01T22:54:57.989Z,14.05
2022-11-01T22:57:29.491Z,16.00
2022-11-01T22:59:59.056Z,15.80
2022-11-01T23:02:30.092Z,16.73
2022-11-01T23:05:16.903Z,14.40
2022-11-01T23:07:46.598Z,15.18
2022-11-01T23:10:23.148Z,16.25
2022-11-01T23:13:10.147Z,16.80
2022-11-01T23:15:37.589Z,15.15
2022-11-01T23:18:14.114Z,15.65
2022-11-01T23:20:41.688Z,15.40
2022-11-01T23:23:14.844Z,14.73
2022-11-01T23:25:42.272Z,14.65
2022-11-01T23:28:09.677Z,14.73
2022-11-01T23:30:37.155Z,14.73
2022-11-01T23:33:04.921Z,14.35
2022-11-01T23:35:33.846Z,14.77
2022-11-01T23:38:01.278Z,14.35
2022-11-01T23:40:32.840Z,15.95
2022-11-01T23:43:00.307Z,18.65
2022-11-01T23:45:30.891Z,16.50
2022-11-01T23:47:58.750Z,16.98
2022-11-01T23:50:28.992Z,16.88
2022-11-01T23:52:59.642Z,17.15
2022-11-01T23:55:29.418Z,16.15
2022-11-01T23:57:58.355Z,16.75
